sensor_id;sensor_type;location;lat;lon;timestamp;P1;P2;P0
33507;PMS7003;25568;37.410;-122.096;2023-03-13T00:01:23;0.00;0.00;0.00
33507;PMS7003;25568;37.410;-122.096;2023-03-13T00:03:53;0.00;0.00;0.00
33507;PMS7003;25568;37.410;-122.096;2023-03-13T00:06:22;0.00;0.00;0.00
33507;PMS7003;25568;37.410;-122.096;2023-03-13T00:08:53;0.00;0.00;0.00
33507;PMS7003;25568;37.410;-122.096;2023-03-13T00:11:22;0.00;0.00;0.00
33507;PMS7003;25568;37.410;-122.096;2023-03-13T00:13:52;0.00;0.00;0.00
33507;PMS7003;25568;37.410;-122.096;2023-03-13T00:16:22;0.00;0.00;0.00
33507;PMS7003;25568;37.410;-122.096;2023-03-13T00:18:51;0.00;0.00;0.00
33507;PMS7003;25568;37.410;-122.096;2023-03-13T00:21:22;0.00;0.00;0.00
33507;PMS7003;25568;37.410;-122.096;2023-03-13T00:23:53;0.00;0.00;0.00
33507;PMS7003;25568;37.410;-122.096;2023-03-13T00:26:23;0.00;0.00;0.00
33507;PMS7003;25568;37.410;-122.096;2023-03-13T00:28:53;0.00;0.00;0.00
33507;PMS7003;25568;37.410;-122.096;2023-03-13T00:31:23;0.00;0.00;0.00
33507;PMS7003;25568;37.410;-122.096;2023-03-13T00:33:53;0.00;0.00;0.00
33507;PMS7003;25568;37.410;-122.096;2023-03-13T00:36:24;0.00;0.00;0.00
33507;PMS7003;25568;37.410;-122.096;2023-03-13T00:38:57;0.25;0.00;0.00
33507;PMS7003;25568;37.410;-122.096;2023-03-13T00:41:26;0.00;0.00;0.00
33507;PMS7003;25568;37.410;-122.096;2023-03-13T00:43:56;0.00;0.00;0.00
33507;PMS7003;25568;37.410;-122.096;2023-03-13T00:46:26;0.00;0.00;0.00
33507;PMS7003;25568;37.410;-122.096;2023-03-13T00:48:56;0.00;0.00;0.00
33507;PMS7003;25568;37.410;-122.096;2023-03-13T00:51:25;0.00;0.00;0.00
33507;PMS7003;25568;37.410;-122.096;2023-03-13T00:53:57;0.00;0.00;0.00
33507;PMS7003;25568;37.410;-122.096;2023-03-13T00:56:27;0.00;0.00;0.00
33507;PMS7003;25568;37.410;-122.096;2023-03-13T00:58:56;0.00;0.00;0.00
33507;PMS7003;25568;37.410;-122.096;2023-03-13T01:01:27;0.00;0.00;0.00
33507;PMS7003;25568;37.410;-122.096;2023-03-13T01:03:57;0.00;0.00;0.00
33507;PMS7003;25568;37.410;-122.096;2023-03-13T01:06:27;0.00;0.00;0.00
33507;PMS7003;25568;37.410;-122.096;2023-03-13T01:08:59;0.00;0.00;0.00
33507;PMS7003;25568;37.410;-122.096;2023-03-13T01:11:31;0.00;0.00;0.00
33507;PMS7003;25568;37.410;-122.096;2023-03-13T01:14:01;0.00;0.00;0.00
33507;PMS7003;25568;37.410;-122.096;2023-03-13T01:16:32;0.00;0.00;0.00
33507;PMS7003;25568;37.410;-122.096;2023-03-13T01:19:03;0.00;0.00;0.00
33507;PMS7003;25568;37.410;-122.096;2023-03-13T01:21:34;0.00;0.00;0.00
33507;PMS7003;25568;37.410;-122.096;2023-03-13T01:24:05;0.00;0.00;0.00
33507;PMS7003;25568;37.410;-122.096;2023-03-13T01:26:34;0.00;0.00;0.00
33507;PMS7003;25568;37.410;-122.096;2023-03-13T01:29:03;0.00;0.00;0.00
33507;PMS7003;25568;37.410;-122.096;2023-03-13T01:31:33;0.00;0.00;0.00
33507;PMS7003;25568;37.410;-122.096;2023-03-13T01:34:03;0.00;0.00;0.00
33507;PMS7003;25568;37.410;-122.096;2023-03-13T01:36:34;0.00;0.00;0.00
33507;PMS7003;25568;37.410;-122.096;2023-03-13T01:39:05;0.00;0.00;0.00
33507;PMS7003;25568;37.410;-122.096;2023-03-13T01:41:34;0.00;0.00;0.00
33507;PMS7003;25568;37.410;-122.096;2023-03-13T01:44:05;0.00;0.00;0.00
33507;PMS7003;25568;37.410;-122.096;2023-03-13T01:46:46;2.50;2.50;1.75
33507;PMS7003;25568;37.410;-122.096;2023-03-13T01:49:15;4.75;4.00;3.50
33507;PMS7003;25568;37.410;-122.096;2023-03-13T01:51:47;4.00;3.50;3.25
33507;PMS7003;25568;37.410;-122.096;2023-03-13T01:54:22;5.00;4.50;3.00
33507;PMS7003;25568;37.410;-122.096;2023-03-13T01:56:56;5.00;4.50;4.00
33507;PMS7003;25568;37.410;-122.096;2023-03-13T01:59:29;2.25;2.25;1.00
33507;PMS7003;25568;37.410;-122.096;2023-03-13T02:02:01;4.50;4.50;4.25
33507;PMS7003;25568;37.410;-122.096;2023-03-13T02:04:33;6.33;5.00;4.00
33507;PMS7003;25568;37.410;-122.096;2023-03-13T02:07:07;5.25;5.00;3.50
33507;PMS7003;25568;37.410;-122.096;2023-03-13T02:09:42;5.00;4.25;4.00
33507;PMS7003;25568;37.410;-122.096;2023-03-13T02:12:17;4.00;3.00;3.00
33507;PMS7003;25568;37.410;-122.096;2023-03-13T02:14:50;3.50;3.00;3.00
33507;PMS7003;25568;37.410;-122.096;2023-03-13T02:17:20;3.00;3.00;3.00
33507;PMS7003;25568;37.410;-122.096;2023-03-13T02:19:50;2.25;2.25;1.75
33507;PMS7003;25568;37.410;-122.096;2023-03-13T02:22:21;3.00;2.00;2.00
33507;PMS7003;25568;37.410;-122.096;2023-03-13T02:24:57;2.00;2.00;1.75
33507;PMS7003;25568;37.410;-122.096;2023-03-13T02:27:36;1.00;1.00;0.50
33507;PMS7003;25568;37.410;-122.096;2023-03-13T02:30:05;1.25;1.00;1.00
33507;PMS7003;25568;37.410;-122.096;2023-03-13T02:32:35;1.00;1.00;1.00
33507;PMS7003;25568;37.410;-122.096;2023-03-13T02:35:06;2.00;1.00;1.00
33507;PMS7003;25568;37.410;-122.096;2023-03-13T02:37:38;2.00;2.00;1.50
33507;PMS7003;25568;37.410;-122.096;2023-03-13T02:40:09;1.00;1.00;1.00
33507;PMS7003;25568;37.410;-122.096;2023-03-13T02:42:43;1.00;0.00;0.00
33507;PMS7003;25568;37.410;-122.096;2023-03-13T02:45:14;0.75;0.75;0.75
33507;PMS7003;25568;37.410;-122.096;2023-03-13T02:47:44;0.00;0.00;0.00
33507;PMS7003;25568;37.410;-122.096;2023-03-13T02:50:13;0.00;0.00;0.00
33507;PMS7003;25568;37.410;-122.096;2023-03-13T02:52:42;1.50;0.00;0.00
33507;PMS7003;25568;37.410;-122.096;2023-03-13T02:55:15;1.00;0.00;0.00
33507;PMS7003;25568;37.410;-122.096;2023-03-13T02:57:49;0.00;0.00;0.00
33507;PMS7003;25568;37.410;-122.096;2023-03-13T03:00:18;0.00;0.00;0.00
33507;PMS7003;25568;37.410;-122.096;2023-03-13T03:02:51;0.00;0.00;0.00
33507;PMS7003;25568;37.410;-122.096;2023-03-13T03:05:21;1.00;0.00;0.00
33507;PMS7003;25568;37.410;-122.096;2023-03-13T03:07:50;0.00;0.00;0.00
33507;PMS7003;25568;37.410;-122.096;2023-03-13T03:10:19;0.00;0.00;0.00
33507;PMS7003;25568;37.410;-122.096;2023-03-13T03:12:49;0.00;0.00;0.00
33507;PMS7003;25568;37.410;-122.096;2023-03-13T03:15:18;0.00;0.00;0.00
33507;PMS7003;25568;37.410;-122.096;2023-03-13T03:17:48;0.00;0.00;0.00
33507;PMS7003;25568;37.410;-122.096;2023-03-13T03:20:17;0.00;0.00;0.00
33507;PMS7003;25568;37.410;-122.096;2023-03-13T03:22:45;0.00;0.00;0.00
33507;PMS7003;25568;37.410;-122.096;2023-03-13T03:25:14;0.00;0.00;0.00
33507;PMS7003;25568;37.410;-122.096;2023-03-13T03:27:43;0.00;0.00;0.00
33507;PMS7003;25568;37.410;-122.096;2023-03-13T03:30:14;0.00;0.00;0.00
33507;PMS7003;25568;37.410;-122.096;2023-03-13T03:32:43;0.00;0.00;0.00
33507;PMS7003;25568;37.410;-122.096;2023-03-13T03:35:12;0.00;0.00;0.00
33507;PMS7003;25568;37.410;-122.096;2023-03-13T03:37:41;0.00;0.00;0.00
33507;PMS7003;25568;37.410;-122.096;2023-03-13T03:40:10;0.00;0.00;0.00
33507;PMS7003;25568;37.410;-122.096;2023-03-13T03:42:40;0.00;0.00;0.00
33507;PMS7003;25568;37.410;-122.096;2023-03-13T03:45:09;0.00;0.00;0.00
33507;PMS7003;25568;37.410;-122.096;2023-03-13T03:47:40;0.00;0.00;0.00
33507;PMS7003;25568;37.410;-122.096;2023-03-13T03:50:09;0.00;0.00;0.00
33507;PMS7003;25568;37.410;-122.096;2023-03-13T03:52:38;0.00;0.00;0.00
33507;PMS7003;25568;37.410;-122.096;2023-03-13T03:55:07;0.00;0.00;0.00
33507;PMS7003;25568;37.410;-122.096;2023-03-13T03:57:36;0.00;0.00;0.00
33507;PMS7003;25568;37.410;-122.096;2023-03-13T04:00:05;0.00;0.00;0.00
33507;PMS7003;25568;37.410;-122.096;2023-03-13T04:02:36;0.00;0.00;0.00
33507;PMS7003;25568;37.410;-122.096;2023-03-13T04:05:07;0.00;0.00;0.00
33507;PMS7003;25568;37.410;-122.096;2023-03-13T04:07:36;0.00;0.00;0.00
33507;PMS7003;25568;37.410;-122.096;2023-03-13T04:10:05;0.00;0.00;0.00
33507;PMS7003;25568;37.410;-122.096;2023-03-13T04:12:34;0.00;0.00;0.00
33507;PMS7003;25568;37.410;-122.096;2023-03-13T04:15:03;0.00;0.00;0.00
33507;PMS7003;25568;37.410;-122.096;2023-03-13T04:17:33;0.00;0.00;0.00
33507;PMS7003;25568;37.410;-122.096;2023-03-13T04:20:04;0.00;0.00;0.00
33507;PMS7003;25568;37.410;-122.096;2023-03-13T04:22:34;0.00;0.00;0.00
33507;PMS7003;25568;37.410;-122.096;2023-03-13T04:25:03;0.00;0.00;0.00
33507;PMS7003;25568;37.410;-122.096;2023-03-13T04:27:32;0.00;0.00;0.00
33507;PMS7003;25568;37.410;-122.096;2023-03-13T04:30:01;0.00;0.00;0.00
33507;PMS7003;25568;37.410;-122.096;2023-03-13T04:32:31;0.00;0.00;0.00
33507;PMS7003;25568;37.410;-122.096;2023-03-13T04:35:00;0.00;0.00;0.00
33507;PMS7003;25568;37.410;-122.096;2023-03-13T04:37:31;0.00;0.00;0.00
33507;PMS7003;25568;37.410;-122.096;2023-03-13T04:40:00;0.00;0.00;0.00
33507;PMS7003;25568;37.410;-122.096;2023-03-13T04:42:29;0.00;0.00;0.00
33507;PMS7003;25568;37.410;-122.096;2023-03-13T04:44:58;0.00;0.00;0.00
33507;PMS7003;25568;37.410;-122.096;2023-03-13T04:47:27;0.00;0.00;0.00
33507;PMS7003;25568;37.410;-122.096;2023-03-13T04:49:56;0.00;0.00;0.00
33507;PMS7003;25568;37.410;-122.096;2023-03-13T04:52:26;0.00;0.00;0.00
33507;PMS7003;25568;37.410;-122.096;2023-03-13T04:54:55;0.00;0.00;0.00
33507;PMS7003;25568;37.410;-122.096;2023-03-13T04:57:24;0.00;0.00;0.00
33507;PMS7003;25568;37.410;-122.096;2023-03-13T04:59:53;0.00;0.00;0.00
33507;PMS7003;25568;37.410;-122.096;2023-03-13T05:02:22;0.00;0.00;0.00
33507;PMS7003;25568;37.410;-122.096;2023-03-13T05:04:51;0.00;0.00;0.00
33507;PMS7003;25568;37.410;-122.096;2023-03-13T05:07:20;0.00;0.00;0.00
33507;PMS7003;25568;37.410;-122.096;2023-03-13T05:09:50;0.00;0.00;0.00
33507;PMS7003;25568;37.410;-122.096;2023-03-13T05:12:19;0.00;0.00;0.00
33507;PMS7003;25568;37.410;-122.096;2023-03-13T05:14:48;0.00;0.00;0.00
33507;PMS7003;25568;37.410;-122.096;2023-03-13T05:17:17;0.00;0.00;0.00
33507;PMS7003;25568;37.410;-122.096;2023-03-13T05:19:46;0.00;0.00;0.00
33507;PMS7003;25568;37.410;-122.096;2023-03-13T05:22:14;0.00;0.00;0.00
33507;PMS7003;25568;37.410;-122.096;2023-03-13T05:24:43;0.00;0.00;0.00
33507;PMS7003;25568;37.410;-122.096;2023-03-13T05:27:14;0.00;0.00;0.00
33507;PMS7003;25568;37.410;-122.096;2023-03-13T05:29:43;0.00;0.00;0.00
33507;PMS7003;25568;37.410;-122.096;2023-03-13T05:32:11;0.00;0.00;0.00
33507;PMS7003;25568;37.410;-122.096;2023-03-13T05:34:40;0.00;0.00;0.00
33507;PMS7003;25568;37.410;-122.096;2023-03-13T05:37:09;0.00;0.00;0.00
33507;PMS7003;25568;37.410;-122.096;2023-03-13T05:39:38;0.00;0.00;0.00
33507;PMS7003;25568;37.410;-122.096;2023-03-13T05:42:07;0.00;0.00;0.00
33507;PMS7003;25568;37.410;-122.096;2023-03-13T05:44:37;0.00;0.00;0.00
33507;PMS7003;25568;37.410;-122.096;2023-03-13T05:47:06;0.00;0.00;0.00
33507;PMS7003;25568;37.410;-122.096;2023-03-13T05:49:35;0.00;0.00;0.00
33507;PMS7003;25568;37.410;-122.096;2023-03-13T05:52:04;0.00;0.00;0.00
33507;PMS7003;25568;37.410;-122.096;2023-03-13T05:54:33;0.00;0.00;0.00
33507;PMS7003;25568;37.410;-122.096;2023-03-13T05:57:01;0.00;0.00;0.00
33507;PMS7003;25568;37.410;-122.096;2023-03-13T05:59:30;0.00;0.00;0.00
33507;PMS7003;25568;37.410;-122.096;2023-03-13T06:02:01;0.00;0.00;0.00
33507;PMS7003;25568;37.410;-122.096;2023-03-13T06:04:30;0.00;0.00;0.00
33507;PMS7003;25568;37.410;-122.096;2023-03-13T06:06:59;0.00;0.00;0.00
33507;PMS7003;25568;37.410;-122.096;2023-03-13T06:09:27;0.00;0.00;0.00
33507;PMS7003;25568;37.410;-122.096;2023-03-13T06:11:56;0.00;0.00;0.00
33507;PMS7003;25568;37.410;-122.096;2023-03-13T06:14:25;0.00;0.00;0.00
33507;PMS7003;25568;37.410;-122.096;2023-03-13T06:16:54;0.00;0.00;0.00
33507;PMS7003;25568;37.410;-122.096;2023-03-13T06:19:24;0.00;0.00;0.00
33507;PMS7003;25568;37.410;-122.096;2023-03-13T06:21:53;0.00;0.00;0.00
33507;PMS7003;25568;37.410;-122.096;2023-03-13T06:24:22;0.00;0.00;0.00
33507;PMS7003;25568;37.410;-122.096;2023-03-13T06:26:51;0.00;0.00;0.00
33507;PMS7003;25568;37.410;-122.096;2023-03-13T06:29:20;0.00;0.00;0.00
33507;PMS7003;25568;37.410;-122.096;2023-03-13T06:31:49;0.00;0.00;0.00
33507;PMS7003;25568;37.410;-122.096;2023-03-13T06:34:18;0.00;0.00;0.00
33507;PMS7003;25568;37.410;-122.096;2023-03-13T06:36:48;0.00;0.00;0.00
33507;PMS7003;25568;37.410;-122.096;2023-03-13T06:39:17;0.00;0.00;0.00
33507;PMS7003;25568;37.410;-122.096;2023-03-13T06:41:46;0.00;0.00;0.00
33507;PMS7003;25568;37.410;-122.096;2023-03-13T06:44:15;0.00;0.00;0.00
33507;PMS7003;25568;37.410;-122.096;2023-03-13T06:46:43;0.00;0.00;0.00
33507;PMS7003;25568;37.410;-122.096;2023-03-13T06:49:12;0.00;0.00;0.00
33507;PMS7003;25568;37.410;-122.096;2023-03-13T06:51:41;0.00;0.00;0.00
33507;PMS7003;25568;37.410;-122.096;2023-03-13T06:54:11;0.00;0.00;0.00
33507;PMS7003;25568;37.410;-122.096;2023-03-13T06:56:40;0.00;0.00;0.00
33507;PMS7003;25568;37.410;-122.096;2023-03-13T06:59:09;0.25;0.00;0.00
33507;PMS7003;25568;37.410;-122.096;2023-03-13T07:01:38;0.00;0.00;0.00
33507;PMS7003;25568;37.410;-122.096;2023-03-13T07:04:07;0.00;0.00;0.00
33507;PMS7003;25568;37.410;-122.096;2023-03-13T07:06:39;0.00;0.00;0.00
33507;PMS7003;25568;37.410;-122.096;2023-03-13T07:09:08;0.00;0.00;0.00
33507;PMS7003;25568;37.410;-122.096;2023-03-13T07:11:38;0.00;0.00;0.00
33507;PMS7003;25568;37.410;-122.096;2023-03-13T07:14:07;0.00;0.00;0.00
33507;PMS7003;25568;37.410;-122.096;2023-03-13T07:16:36;0.00;0.00;0.00
33507;PMS7003;25568;37.410;-122.096;2023-03-13T07:19:05;0.00;0.00;0.00
33507;PMS7003;25568;37.410;-122.096;2023-03-13T07:21:33;0.00;0.00;0.00
33507;PMS7003;25568;37.410;-122.096;2023-03-13T07:24:03;0.00;0.00;0.00
33507;PMS7003;25568;37.410;-122.096;2023-03-13T07:26:32;0.00;0.00;0.00
33507;PMS7003;25568;37.410;-122.096;2023-03-13T07:29:02;0.00;0.00;0.00
33507;PMS7003;25568;37.410;-122.096;2023-03-13T07:31:31;0.00;0.00;0.00
33507;PMS7003;25568;37.410;-122.096;2023-03-13T07:34:00;0.00;0.00;0.00
33507;PMS7003;25568;37.410;-122.096;2023-03-13T07:36:29;0.00;0.00;0.00
33507;PMS7003;25568;37.410;-122.096;2023-03-13T07:38:59;0.00;0.00;0.00
33507;PMS7003;25568;37.410;-122.096;2023-03-13T07:41:28;0.00;0.00;0.00
33507;PMS7003;25568;37.410;-122.096;2023-03-13T07:43:57;0.00;0.00;0.00
33507;PMS7003;25568;37.410;-122.096;2023-03-13T07:46:28;0.00;0.00;0.00
33507;PMS7003;25568;37.410;-122.096;2023-03-13T07:48:57;0.00;0.00;0.00
33507;PMS7003;25568;37.410;-122.096;2023-03-13T07:51:25;0.00;0.00;0.00
33507;PMS7003;25568;37.410;-122.096;2023-03-13T07:53:54;0.00;0.00;0.00
33507;PMS7003;25568;37.410;-122.096;2023-03-13T07:56:23;0.00;0.00;0.00
33507;PMS7003;25568;37.410;-122.096;2023-03-13T07:58:52;0.00;0.00;0.00
33507;PMS7003;25568;37.410;-122.096;2023-03-13T08:01:21;0.00;0.00;0.00
33507;PMS7003;25568;37.410;-122.096;2023-03-13T08:03:52;0.00;0.00;0.00
33507;PMS7003;25568;37.410;-122.096;2023-03-13T08:06:23;0.00;0.00;0.00
33507;PMS7003;25568;37.410;-122.096;2023-03-13T08:08:55;0.00;0.00;0.00
33507;PMS7003;25568;37.410;-122.096;2023-03-13T08:11:25;0.00;0.00;0.00
33507;PMS7003;25568;37.410;-122.096;2023-03-13T08:13:55;0.00;0.00;0.00
33507;PMS7003;25568;37.410;-122.096;2023-03-13T08:16:25;0.00;0.00;0.00
33507;PMS7003;25568;37.410;-122.096;2023-03-13T08:18:57;0.00;0.00;0.00
33507;PMS7003;25568;37.410;-122.096;2023-03-13T08:21:26;0.00;0.00;0.00
33507;PMS7003;25568;37.410;-122.096;2023-03-13T08:23:57;0.00;0.00;0.00
33507;PMS7003;25568;37.410;-122.096;2023-03-13T08:26:26;0.00;0.00;0.00
33507;PMS7003;25568;37.410;-122.096;2023-03-13T08:28:56;0.00;0.00;0.00
33507;PMS7003;25568;37.410;-122.096;2023-03-13T08:31:27;0.00;0.00;0.00
33507;PMS7003;25568;37.410;-122.096;2023-03-13T08:33:58;0.00;0.00;0.00
33507;PMS7003;25568;37.410;-122.096;2023-03-13T08:36:28;0.00;0.00;0.00
33507;PMS7003;25568;37.410;-122.096;2023-03-13T08:38:58;0.00;0.00;0.00
33507;PMS7003;25568;37.410;-122.096;2023-03-13T08:41:31;0.00;0.00;0.00
33507;PMS7003;25568;37.410;-122.096;2023-03-13T08:44:01;0.00;0.00;0.00
33507;PMS7003;25568;37.410;-122.096;2023-03-13T08:46:30;0.00;0.00;0.00
33507;PMS7003;25568;37.410;-122.096;2023-03-13T08:49:02;0.00;0.00;0.00
33507;PMS7003;25568;37.410;-122.096;2023-03-13T08:51:32;0.00;0.00;0.00
33507;PMS7003;25568;37.410;-122.096;2023-03-13T08:54:02;0.00;0.00;0.00
33507;PMS7003;25568;37.410;-122.096;2023-03-13T08:56:31;0.00;0.00;0.00
33507;PMS7003;25568;37.410;-122.096;2023-03-13T08:59:01;0.00;0.00;0.00
33507;PMS7003;25568;37.410;-122.096;2023-03-13T09:01:32;0.00;0.00;0.00
33507;PMS7003;25568;37.410;-122.096;2023-03-13T09:04:04;0.00;0.00;0.00
33507;PMS7003;25568;37.410;-122.096;2023-03-13T09:06:33;0.00;0.00;0.00
33507;PMS7003;25568;37.410;-122.096;2023-03-13T09:09:04;0.00;0.00;0.00
33507;PMS7003;25568;37.410;-122.096;2023-03-13T09:11:34;0.00;0.00;0.00
33507;PMS7003;25568;37.410;-122.096;2023-03-13T09:14:04;0.00;0.00;0.00
33507;PMS7003;25568;37.410;-122.096;2023-03-13T09:16:34;0.00;0.00;0.00
33507;PMS7003;25568;37.410;-122.096;2023-03-13T09:19:04;0.00;0.00;0.00
33507;PMS7003;25568;37.410;-122.096;2023-03-13T09:21:33;0.00;0.00;0.00
33507;PMS7003;25568;37.410;-122.096;2023-03-13T09:24:03;0.00;0.00;0.00
33507;PMS7003;25568;37.410;-122.096;2023-03-13T09:26:32;0.00;0.00;0.00
33507;PMS7003;25568;37.410;-122.096;2023-03-13T09:29:01;0.00;0.00;0.00
33507;PMS7003;25568;37.410;-122.096;2023-03-13T09:31:30;0.00;0.00;0.00
33507;PMS7003;25568;37.410;-122.096;2023-03-13T09:33:59;0.00;0.00;0.00
33507;PMS7003;25568;37.410;-122.096;2023-03-13T09:36:30;0.00;0.00;0.00
33507;PMS7003;25568;37.410;-122.096;2023-03-13T09:38:58;0.00;0.00;0.00
33507;PMS7003;25568;37.410;-122.096;2023-03-13T09:41:30;0.00;0.00;0.00
33507;PMS7003;25568;37.410;-122.096;2023-03-13T09:44:04;0.00;0.00;0.00
33507;PMS7003;25568;37.410;-122.096;2023-03-13T09:46:39;0.00;0.00;0.00
33507;PMS7003;25568;37.410;-122.096;2023-03-13T09:49:13;0.00;0.00;0.00
33507;PMS7003;25568;37.410;-122.096;2023-03-13T09:51:55;0.00;0.00;0.00
33507;PMS7003;25568;37.410;-122.096;2023-03-13T09:54:33;0.00;0.00;0.00
33507;PMS7003;25568;37.410;-122.096;2023-03-13T09:57:06;0.00;0.00;0.00
33507;PMS7003;25568;37.410;-122.096;2023-03-13T09:59:44;0.00;0.00;0.00
33507;PMS7003;25568;37.410;-122.096;2023-03-13T10:02:20;0.00;0.00;0.00
33507;PMS7003;25568;37.410;-122.096;2023-03-13T10:04:59;0.00;0.00;0.00
33507;PMS7003;25568;37.410;-122.096;2023-03-13T10:07:34;0.00;0.00;0.00
33507;PMS7003;25568;37.410;-122.096;2023-03-13T10:10:05;0.00;0.00;0.00
33507;PMS7003;25568;37.410;-122.096;2023-03-13T10:12:41;0.00;0.00;0.00
33507;PMS7003;25568;37.410;-122.096;2023-03-13T10:15:27;0.00;0.00;0.00
33507;PMS7003;25568;37.410;-122.096;2023-03-13T10:18:05;0.00;0.00;0.00
33507;PMS7003;25568;37.410;-122.096;2023-03-13T10:20:45;0.00;0.00;0.00
33507;PMS7003;25568;37.410;-122.096;2023-03-13T10:23:19;0.00;0.00;0.00
33507;PMS7003;25568;37.410;-122.096;2023-03-13T10:25:53;0.00;0.00;0.00
33507;PMS7003;25568;37.410;-122.096;2023-03-13T10:28:23;0.00;0.00;0.00
33507;PMS7003;25568;37.410;-122.096;2023-03-13T10:30:53;0.00;0.00;0.00
33507;PMS7003;25568;37.410;-122.096;2023-03-13T10:33:29;0.00;0.00;0.00
33507;PMS7003;25568;37.410;-122.096;2023-03-13T10:36:05;0.00;0.00;0.00
33507;PMS7003;25568;37.410;-122.096;2023-03-13T10:38:45;0.00;0.00;0.00
33507;PMS7003;25568;37.410;-122.096;2023-03-13T10:41:18;0.00;0.00;0.00
33507;PMS7003;25568;37.410;-122.096;2023-03-13T10:43:53;0.00;0.00;0.00
33507;PMS7003;25568;37.410;-122.096;2023-03-13T10:46:26;0.00;0.00;0.00
33507;PMS7003;25568;37.410;-122.096;2023-03-13T10:48:56;0.00;0.00;0.00
33507;PMS7003;25568;37.410;-122.096;2023-03-13T10:51:34;0.00;0.00;0.00
33507;PMS7003;25568;37.410;-122.096;2023-03-13T10:54:20;0.00;0.00;0.00
33507;PMS7003;25568;37.410;-122.096;2023-03-13T10:56:50;0.00;0.00;0.00
33507;PMS7003;25568;37.410;-122.096;2023-03-13T10:59:33;0.00;0.00;0.00
33507;PMS7003;25568;37.410;-122.096;2023-03-13T11:02:16;0.00;0.00;0.00
33507;PMS7003;25568;37.410;-122.096;2023-03-13T11:04:48;0.00;0.00;0.00
33507;PMS7003;25568;37.410;-122.096;2023-03-13T11:07:20;0.00;0.00;0.00
33507;PMS7003;25568;37.410;-122.096;2023-03-13T11:10:14;0.00;0.00;0.00
33507;PMS7003;25568;37.410;-122.096;2023-03-13T11:12:45;0.00;0.00;0.00
33507;PMS7003;25568;37.410;-122.096;2023-03-13T11:15:17;0.00;0.00;0.00
33507;PMS7003;25568;37.410;-122.096;2023-03-13T11:17:50;0.00;0.00;0.00
33507;PMS7003;25568;37.410;-122.096;2023-03-13T11:20:26;0.00;0.00;0.00
33507;PMS7003;25568;37.410;-122.096;2023-03-13T11:23:04;0.00;0.00;0.00
33507;PMS7003;25568;37.410;-122.096;2023-03-13T11:25:44;0.00;0.00;0.00
33507;PMS7003;25568;37.410;-122.096;2023-03-13T11:28:26;0.00;0.00;0.00
33507;PMS7003;25568;37.410;-122.096;2023-03-13T11:31:14;0.00;0.00;0.00
33507;PMS7003;25568;37.410;-122.096;2023-03-13T11:33:51;0.00;0.00;0.00
33507;PMS7003;25568;37.410;-122.096;2023-03-13T11:36:28;0.00;0.00;0.00
33507;PMS7003;25568;37.410;-122.096;2023-03-13T11:42:03;0.00;0.00;0.00
33507;PMS7003;25568;37.410;-122.096;2023-03-13T11:44:54;0.00;0.00;0.00
33507;PMS7003;25568;37.410;-122.096;2023-03-13T11:47:33;0.00;0.00;0.00
33507;PMS7003;25568;37.410;-122.096;2023-03-13T11:50:17;0.00;0.00;0.00
33507;PMS7003;25568;37.410;-122.096;2023-03-13T11:53:03;0.00;0.00;0.00
33507;PMS7003;25568;37.410;-122.096;2023-03-13T11:55:56;0.00;0.00;0.00
33507;PMS7003;25568;37.410;-122.096;2023-03-13T11:58:34;0.00;0.00;0.00
33507;PMS7003;25568;37.410;-122.096;2023-03-13T12:01:12;0.00;0.00;0.00
33507;PMS7003;25568;37.410;-122.096;2023-03-13T12:03:46;0.00;0.00;0.00
33507;PMS7003;25568;37.410;-122.096;2023-03-13T12:06:24;0.00;0.00;0.00
33507;PMS7003;25568;37.410;-122.096;2023-03-13T12:08:58;0.00;0.00;0.00
33507;PMS7003;25568;37.410;-122.096;2023-03-13T12:11:35;0.00;0.00;0.00
33507;PMS7003;25568;37.410;-122.096;2023-03-13T12:14:10;0.00;0.00;0.00
33507;PMS7003;25568;37.410;-122.096;2023-03-13T12:16:44;0.00;0.00;0.00
33507;PMS7003;25568;37.410;-122.096;2023-03-13T12:19:17;0.00;0.00;0.00
33507;PMS7003;25568;37.410;-122.096;2023-03-13T12:21:51;0.00;0.00;0.00
33507;PMS7003;25568;37.410;-122.096;2023-03-13T12:24:26;0.00;0.00;0.00
33507;PMS7003;25568;37.410;-122.096;2023-03-13T12:26:59;0.00;0.00;0.00
33507;PMS7003;25568;37.410;-122.096;2023-03-13T12:29:39;0.00;0.00;0.00
33507;PMS7003;25568;37.410;-122.096;2023-03-13T12:32:13;0.00;0.00;0.00
33507;PMS7003;25568;37.410;-122.096;2023-03-13T12:34:54;0.00;0.00;0.00
33507;PMS7003;25568;37.410;-122.096;2023-03-13T12:37:35;0.00;0.00;0.00
33507;PMS7003;25568;37.410;-122.096;2023-03-13T12:40:13;0.00;0.00;0.00
33507;PMS7003;25568;37.410;-122.096;2023-03-13T12:42:50;0.00;0.00;0.00
33507;PMS7003;25568;37.410;-122.096;2023-03-13T12:45:25;0.00;0.00;0.00
33507;PMS7003;25568;37.410;-122.096;2023-03-13T12:50:52;0.00;0.00;0.00
33507;PMS7003;25568;37.410;-122.096;2023-03-13T12:56:51;0.00;0.00;0.00
33507;PMS7003;25568;37.410;-122.096;2023-03-13T12:59:30;0.00;0.00;0.00
33507;PMS7003;25568;37.410;-122.096;2023-03-13T13:02:06;0.00;0.00;0.00
33507;PMS7003;25568;37.410;-122.096;2023-03-13T13:04:43;0.00;0.00;0.00
33507;PMS7003;25568;37.410;-122.096;2023-03-13T13:07:21;0.00;0.00;0.00
33507;PMS7003;25568;37.410;-122.096;2023-03-13T13:10:03;0.00;0.00;0.00
33507;PMS7003;25568;37.410;-122.096;2023-03-13T13:12:43;0.00;0.00;0.00
33507;PMS7003;25568;37.410;-122.096;2023-03-13T13:15:17;0.00;0.00;0.00
33507;PMS7003;25568;37.410;-122.096;2023-03-13T13:21:20;0.00;0.00;0.00
33507;PMS7003;25568;37.410;-122.096;2023-03-13T13:23:51;0.00;0.00;0.00
33507;PMS7003;25568;37.410;-122.096;2023-03-13T13:32:32;0.00;0.00;0.00
33507;PMS7003;25568;37.410;-122.096;2023-03-13T13:35:30;0.00;0.00;0.00
33507;PMS7003;25568;37.410;-122.096;2023-03-13T13:41:21;0.00;0.00;0.00
33507;PMS7003;25568;37.410;-122.096;2023-03-13T13:46:56;0.00;0.00;0.00
33507;PMS7003;25568;37.410;-122.096;2023-03-13T13:49:34;0.00;0.00;0.00
33507;PMS7003;25568;37.410;-122.096;2023-03-13T13:55:15;0.00;0.00;0.00
33507;PMS7003;25568;37.410;-122.096;2023-03-13T13:58:10;0.00;0.00;0.00
33507;PMS7003;25568;37.410;-122.096;2023-03-13T14:00:44;0.00;0.00;0.00
33507;PMS7003;25568;37.410;-122.096;2023-03-13T14:03:19;0.00;0.00;0.00
33507;PMS7003;25568;37.410;-122.096;2023-03-13T14:05:51;0.00;0.00;0.00
33507;PMS7003;25568;37.410;-122.096;2023-03-13T14:08:23;0.00;0.00;0.00
33507;PMS7003;25568;37.410;-122.096;2023-03-13T14:11:04;0.00;0.00;0.00
33507;PMS7003;25568;37.410;-122.096;2023-03-13T14:13:41;0.00;0.00;0.00
33507;PMS7003;25568;37.410;-122.096;2023-03-13T14:16:17;0.00;0.00;0.00
33507;PMS7003;25568;37.410;-122.096;2023-03-13T14:18:51;0.00;0.00;0.00
33507;PMS7003;25568;37.410;-122.096;2023-03-13T14:21:20;0.00;0.00;0.00
33507;PMS7003;25568;37.410;-122.096;2023-03-13T14:23:50;0.00;0.00;0.00
33507;PMS7003;25568;37.410;-122.096;2023-03-13T14:26:21;0.00;0.00;0.00
33507;PMS7003;25568;37.410;-122.096;2023-03-13T14:28:51;0.00;0.00;0.00
33507;PMS7003;25568;37.410;-122.096;2023-03-13T14:31:22;0.00;0.00;0.00
33507;PMS7003;25568;37.410;-122.096;2023-03-13T14:33:52;0.00;0.00;0.00
33507;PMS7003;25568;37.410;-122.096;2023-03-13T14:36:22;0.00;0.00;0.00
33507;PMS7003;25568;37.410;-122.096;2023-03-13T14:38:52;0.00;0.00;0.00
33507;PMS7003;25568;37.410;-122.096;2023-03-13T14:41:26;0.00;0.00;0.00